Time;durP1;ratioP1;P1;durP2;ratioP2;P2;SDS_P1;SDS_P2;PMS_P1;PMS_P2;Temp;Humidity;BMP_temperature;BMP_pressure;BME280_temperature;BME280_humidity;BME280_pressure;Samples;Min_cycle;Max_cycle;Signal;HPM_P1;HPM_P2
2022/03/16 00:02:58;;;;;;;58.33;36.57;;;;;;;13.20;63.37;99517.97;7054826;28;20210;-76
2022/03/16 00:06:20;;;;;;;56.67;37.03;;;;;;;13.50;63.27;99513.03;7053325;28;20233;-76
2022/03/16 00:09:41;;;;;;;56.70;37.20;;;;;;;13.53;62.80;99515.34;7054173;28;20343;-77
2022/03/16 00:13:04;;;;;;;52.07;35.80;;;;;;;13.60;62.56;99500.75;7053160;28;20201;-77
2022/03/16 00:16:26;;;;;;;52.17;36.20;;;;;;;13.68;62.54;99513.28;7052229;28;20313;-76
2022/03/16 00:19:47;;;;;;;54.10;36.67;;;;;;;13.46;62.75;99512.59;7053796;28;20261;-77
2022/03/16 00:23:09;;;;;;;49.63;35.27;;;;;;;13.43;62.87;99514.91;7053865;28;20296;-77
2022/03/16 00:26:31;;;;;;;61.17;37.87;;;;;;;13.49;62.75;99508.66;7053075;28;20312;-77
2022/03/16 00:29:53;;;;;;;55.70;37.53;;;;;;;13.55;62.86;99508.69;7054131;28;20209;-77
2022/03/16 00:33:15;;;;;;;55.67;37.57;;;;;;;13.53;62.56;99508.06;7053609;28;20312;-76
2022/03/16 00:36:36;;;;;;;57.27;36.50;;;;;;;13.57;62.59;99506.56;7053119;28;20239;-77
2022/03/16 00:39:58;;;;;;;58.23;38.47;;;;;;;13.64;62.50;99514.72;7053734;28;20229;-77
2022/03/16 00:43:19;;;;;;;51.77;35.60;;;;;;;13.59;62.74;99517.22;7053554;28;20343;-77
2022/03/16 00:46:43;;;;;;;50.93;35.40;;;;;;;13.50;62.37;99505.75;7052990;28;20223;-77
2022/03/16 00:50:05;;;;;;;56.73;37.13;;;;;;;13.45;62.30;99499.28;7053011;28;20203;-77
2022/03/16 00:53:26;;;;;;;54.33;37.07;;;;;;;13.59;62.33;99506.38;7053383;28;20258;-76
2022/03/16 00:56:48;;;;;;;54.67;37.30;;;;;;;13.46;62.43;99507.19;7049960;28;20221;-76
2022/03/16 01:00:11;;;;;;;58.87;37.83;;;;;;;13.41;62.46;99501.59;7053113;28;20225;-76
2022/03/16 01:03:34;;;;;;;59.43;38.93;;;;;;;13.46;62.45;99500.97;7052747;28;20684;-76
2022/03/16 01:06:56;;;;;;;58.43;39.47;;;;;;;13.64;62.20;99496.56;7052394;28;20228;-77
2022/03/16 01:10:17;;;;;;;58.30;38.70;;;;;;;13.67;61.86;99506.16;7052952;28;20340;-77
2022/03/16 01:13:40;;;;;;;56.97;37.90;;;;;;;13.68;61.48;99494.31;7051994;28;20934;-76
2022/03/16 01:17:01;;;;;;;50.33;36.70;;;;;;;13.70;61.61;99489.50;7052263;28;20282;-77
2022/03/16 01:20:24;;;;;;;55.00;38.23;;;;;;;13.72;61.28;99493.69;7052754;28;20705;-76
2022/03/16 01:23:46;;;;;;;62.67;40.60;;;;;;;13.52;61.76;99498.22;7052609;28;20237;-76
2022/03/16 01:27:07;;;;;;;61.37;40.17;;;;;;;13.54;61.95;99496.16;7051104;28;20281;-77
2022/03/16 01:30:29;;;;;;;66.43;41.97;;;;;;;13.43;62.48;99487.81;7052505;28;20340;-76
2022/03/16 01:33:50;;;;;;;65.17;41.47;;;;;;;13.61;61.98;99488.03;7051969;28;20307;-76
2022/03/16 01:37:15;;;;;;;57.90;39.63;;;;;;;13.84;61.38;99485.75;7051853;28;20563;-77
2022/03/16 01:40:36;;;;;;;63.90;40.57;;;;;;;13.56;61.55;99480.53;7052386;28;20233;-76
2022/03/16 01:43:58;;;;;;;65.83;42.37;;;;;;;13.56;61.72;99488.66;7052053;28;20297;-76
2022/03/16 01:47:21;;;;;;;65.03;42.40;;;;;;;13.28;62.27;99490.69;7051245;28;20811;-76
2022/03/16 01:50:43;;;;;;;64.60;41.00;;;;;;;13.08;63.31;99491.69;7051913;28;20202;-76
2022/03/16 01:54:05;;;;;;;65.67;39.53;;;;;;;13.39;62.65;99502.81;7051859;28;20254;-76
2022/03/16 01:57:27;;;;;;;64.97;41.47;;;;;;;13.34;62.63;99489.88;7051709;28;20370;-77
2022/03/16 02:00:49;;;;;;;61.97;41.67;;;;;;;13.21;62.24;99484.44;7052308;28;20224;-77
2022/03/16 02:04:11;;;;;;;61.63;39.43;;;;;;;13.41;62.49;99514.28;7051944;28;20209;-77
2022/03/16 02:07:33;;;;;;;61.80;38.83;;;;;;;13.30;62.55;99501.34;7051202;28;20369;-77
2022/03/16 02:10:56;;;;;;;61.13;39.77;;;;;;;13.41;62.51;99514.28;7052282;28;20225;-77
2022/03/16 02:14:18;;;;;;;68.47;40.80;;;;;;;13.31;62.40;99498.44;7051478;28;20270;-77
2022/03/16 02:17:40;;;;;;;64.27;41.37;;;;;;;13.27;62.57;99509.88;7051253;28;20234;-76
2022/03/16 02:21:03;;;;;;;62.80;38.90;;;;;;;13.40;62.32;99499.88;7051481;28;20282;-76
2022/03/16 02:24:29;;;;;;;63.77;40.43;;;;;;;13.43;62.42;99506.78;7051787;28;20204;-76
2022/03/16 02:27:52;;;;;;;65.10;41.77;;;;;;;13.13;62.70;99497.34;7051246;28;20230;-76
2022/03/16 02:31:17;;;;;;;69.03;43.30;;;;;;;13.30;62.83;99504.91;7052591;28;20276;-76
2022/03/16 02:34:38;;;;;;;69.03;43.40;;;;;;;13.37;62.66;99505.72;7051460;28;20271;-76
2022/03/16 02:38:00;;;;;;;66.23;42.27;;;;;;;13.63;61.73;99508.47;7051891;28;20281;-76
2022/03/16 02:41:23;;;;;;;66.17;42.30;;;;;;;13.55;62.02;99507.81;7056963;28;20261;-76
2022/03/16 02:44:44;;;;;;;65.50;40.03;;;;;;;13.39;61.78;99500.94;7057074;28;20683;-76
2022/03/16 02:48:06;;;;;;;66.63;41.77;;;;;;;13.33;62.18;99500.94;7056134;28;20607;-78
2022/03/16 02:51:29;;;;;;;68.63;42.27;;;;;;;13.22;62.71;99512.38;7056939;28;20306;-76
2022/03/16 02:54:50;;;;;;;73.70;43.23;;;;;;;13.02;63.12;99508.75;7057044;28;20235;-76
2022/03/16 02:58:14;;;;;;;68.37;42.17;;;;;;;12.99;63.53;99501.88;7055837;28;20362;-76
2022/03/16 03:01:35;;;;;;;75.40;42.90;;;;;;;13.31;62.67;99501.13;7056579;28;20287;-77
2022/03/16 03:04:57;;;;;;;71.67;42.83;;;;;;;13.67;61.79;99501.59;7056363;28;20205;-76
2022/03/16 03:08:18;;;;;;;65.83;41.53;;;;;;;13.76;61.46;99499.50;7055822;28;20229;-76
2022/03/16 03:11:40;;;;;;;63.80;39.37;;;;;;;13.86;61.08;99497.22;7057541;28;20297;-77
2022/03/16 03:15:05;;;;;;;57.77;39.03;;;;;;;13.82;60.61;99501.38;7054998;28;20204;-76
2022/03/16 03:18:27;;;;;;;61.10;39.83;;;;;;;13.78;61.08;99519.94;7055622;28;20225;-77
2022/03/16 03:21:49;;;;;;;65.27;41.37;;;;;;;13.50;60.90;99504.91;7055563;28;20347;-76
2022/03/16 03:25:11;;;;;;;68.00;40.93;;;;;;;13.32;62.25;99510.06;7055581;28;20287;-76
2022/03/16 03:28:32;;;;;;;69.80;43.40;;;;;;;13.42;62.02;99510.53;7055486;28;20260;-76
2022/03/16 03:31:55;;;;;;;66.87;41.80;;;;;;;13.63;61.38;99519.28;7055377;28;20296;-76
2022/03/16 03:35:17;;;;;;;68.33;42.43;;;;;;;13.65;61.47;99517.25;7055204;28;20207;-77
2022/03/16 03:38:38;;;;;;;69.33;42.07;;;;;;;13.56;61.42;99514.91;7054854;28;20235;-76
2022/03/16 03:42:00;;;;;;;72.67;42.90;;;;;;;13.46;62.12;99514.50;7055341;28;20317;-77
2022/03/16 03:45:22;;;;;;;69.40;40.97;;;;;;;13.47;62.00;99516.16;7054927;28;20366;-77
2022/03/16 03:48:44;;;;;;;69.10;43.20;;;;;;;13.49;61.96;99514.06;7053824;28;20265;-77
2022/03/16 03:52:07;;;;;;;64.07;40.13;;;;;;;13.30;62.37;99520.28;7055197;28;20202;-77
2022/03/16 03:55:28;;;;;;;71.07;43.60;;;;;;;13.76;61.36;99511.16;7054887;28;20609;-77
2022/03/16 03:58:50;;;;;;;72.43;43.17;;;;;;;13.55;61.44;99513.25;7053881;28;20363;-76
2022/03/16 04:02:11;;;;;;;78.50;44.70;;;;;;;13.17;62.49;99512.97;7054481;28;20265;-76
2022/03/16 04:05:34;;;;;;;80.20;44.13;;;;;;;13.25;62.54;99522.78;7054104;28;20302;-76
2022/03/16 04:08:56;;;;;;;73.87;43.87;;;;;;;13.43;62.69;99523.88;7054341;28;20228;-76
2022/03/16 04:12:17;;;;;;;78.17;43.70;;;;;;;13.38;62.58;99534.47;7052880;28;20262;-76
2022/03/16 04:15:39;;;;;;;72.63;42.83;;;;;;;13.41;62.47;99530.53;7053930;28;20193;-76
2022/03/16 04:19:00;;;;;;;75.63;43.57;;;;;;;13.30;62.66;99536.53;7054454;28;20227;-76
2022/03/16 04:22:26;;;;;;;85.80;47.20;;;;;;;13.22;62.83;99534.03;7054104;28;20358;-76
2022/03/16 04:25:48;;;;;;;81.33;45.57;;;;;;;13.06;63.01;99527.13;7053329;28;20198;-76
2022/03/16 04:29:09;;;;;;;86.50;46.50;;;;;;;13.16;63.00;99551.09;7053754;28;20353;-76
2022/03/16 04:32:31;;;;;;;76.23;44.70;;;;;;;13.22;62.84;99547.56;7054262;28;20310;-77
2022/03/16 04:35:52;;;;;;;77.93;45.03;;;;;;;13.17;62.92;99541.94;7053217;28;20221;-77
2022/03/16 04:39:16;;;;;;;74.93;45.40;;;;;;;13.10;63.09;99552.72;7054024;28;20236;-77
2022/03/16 04:42:38;;;;;;;75.73;44.83;;;;;;;13.26;62.78;99551.53;7053608;28;20719;-77
2022/03/16 04:46:00;;;;;;;75.30;44.20;;;;;;;13.22;62.75;99553.00;7052995;28;20278;-76
2022/03/16 04:49:21;;;;;;;74.97;44.60;;;;;;;13.24;62.75;99549.03;7053243;28;20273;-77
2022/03/16 04:52:44;;;;;;;66.70;42.60;;;;;;;13.21;62.66;99544.03;7053460;28;20616;-76
2022/03/16 04:56:07;;;;;;;74.83;43.37;;;;;;;13.22;62.76;99544.88;7053043;28;20215;-77
2022/03/16 04:59:29;;;;;;;70.77;43.77;;;;;;;13.15;62.60;99531.28;7051903;28;20567;-77
2022/03/16 05:02:51;;;;;;;73.70;44.93;;;;;;;12.91;63.58;99555.31;7051712;28;20228;-77
2022/03/16 05:06:12;;;;;;;65.60;40.53;;;;;;;13.51;62.07;99536.41;7051462;28;20229;-76
2022/03/16 05:09:34;;;;;;;70.97;41.73;;;;;;;13.23;62.15;99538.41;7050706;28;20206;-77
2022/03/16 05:12:57;;;;;;;79.33;43.97;;;;;;;13.23;62.50;99546.53;7052195;28;20239;-78
2022/03/16 05:16:18;;;;;;;78.87;42.67;;;;;;;13.29;62.69;99545.72;7051532;28;20320;-77
2022/03/16 05:19:40;;;;;;;73.93;43.17;;;;;;;13.46;62.35;99547.00;7052160;28;20298;-77
2022/03/16 05:23:01;;;;;;;90.43;44.97;;;;;;;13.11;63.01;99538.16;7052613;28;20320;-76
2022/03/16 05:26:23;;;;;;;77.27;42.90;;;;;;;13.20;63.60;99553.19;7052261;28;20319;-77
2022/03/16 05:29:46;;;;;;;68.67;39.27;;;;;;;12.92;63.34;99552.41;7052153;28;20291;-76
2022/03/16 05:33:07;;;;;;;74.13;38.13;;;;;;;11.79;65.53;99561.03;7052035;28;20220;-76
2022/03/16 05:36:29;;;;;;;67.40;35.83;;;;;;;11.30;67.58;99559.25;7052543;28;20696;-76
2022/03/16 05:39:52;;;;;;;64.00;38.50;;;;;;;11.10;67.30;99564.44;7056290;28;20332;-79
2022/03/16 05:43:14;;;;;;;60.13;35.57;;;;;;;10.51;69.01;99560.13;7039588;27;20225;-81
2022/03/16 05:46:37;;;;;;;61.87;36.37;;;;;;;10.79;68.75;99563.84;7059362;28;20244;-80
2022/03/16 05:49:59;;;;;;;55.00;32.87;;;;;;;10.36;69.25;99561.16;7048233;28;20229;-79
2022/03/16 05:53:20;;;;;;;55.37;32.63;;;;;;;10.71;69.53;99563.13;7066046;28;20683;-77
2022/03/16 05:56:42;;;;;;;56.80;34.60;;;;;;;10.23;69.41;99566.38;7050916;28;20228;-76
2022/03/16 06:00:05;;;;;;;53.93;35.23;;;;;;;9.97;69.46;99579.38;7077871;28;20293;-78
2022/03/16 06:03:28;;;;;;;51.60;34.97;;;;;;;10.26;68.44;99583.00;7080319;28;20689;-77
2022/03/16 06:06:50;;;;;;;50.60;31.17;;;;;;;10.75;69.05;99583.31;7083244;28;20223;-79
2022/03/16 06:10:14;;;;;;;56.47;33.37;;;;;;;11.06;66.39;99589.28;7060717;28;20268;-78
2022/03/16 06:13:35;;;;;;;48.27;30.93;;;;;;;11.39;64.74;99601.31;7074997;27;20202;-78
2022/03/16 06:16:57;;;;;;;45.63;30.03;;;;;;;11.69;62.97;99592.13;7058401;28;20268;-78
2022/03/16 06:20:20;;;;;;;48.03;30.30;;;;;;;11.40;63.01;99562.50;7058538;28;20201;-78
2022/03/16 06:23:42;;;;;;;47.87;31.10;;;;;;;11.89;63.09;99593.97;7059116;28;20679;-79
2022/03/16 06:27:04;;;;;;;46.13;30.03;;;;;;;11.85;61.91;99579.16;7066914;27;20224;-79
2022/03/16 06:30:25;;;;;;;42.73;29.00;;;;;;;12.43;60.60;99594.19;7086495;27;20205;-78
2022/03/16 06:33:47;;;;;;;48.83;30.00;;;;;;;12.19;60.62;99610.84;7087704;27;20668;-79
2022/03/16 06:37:10;;;;;;;48.53;32.40;;;;;;;12.41;60.59;99602.50;7086818;27;20224;-81
2022/03/16 06:40:31;;;;;;;46.93;31.50;;;;;;;12.03;61.51;99594.94;7069537;27;20210;-80
2022/03/16 06:43:53;;;;;;;50.77;30.40;;;;;;;12.40;60.37;99598.09;7061065;28;20338;-81
2022/03/16 06:47:15;;;;;;;44.43;30.00;;;;;;;12.27;60.50;99603.44;7061582;28;20707;-81
2022/03/16 06:50:37;;;;;;;43.70;27.93;;;;;;;12.17;60.15;99580.47;7060751;28;20208;-81
2022/03/16 06:54:00;;;;;;;51.40;31.17;;;;;;;12.07;60.10;99596.19;7062324;28;20257;-81
2022/03/16 06:57:22;;;;;;;42.20;29.33;;;;;;;11.91;60.10;99600.00;7061335;28;20232;-81
2022/03/16 07:00:43;;;;;;;43.13;29.80;;;;;;;11.96;60.53;99583.22;7059701;28;20382;-81
2022/03/16 07:04:05;;;;;;;44.63;30.10;;;;;;;11.92;61.06;99606.25;7061729;28;20666;-81
2022/03/16 07:07:27;;;;;;;44.60;29.17;;;;;;;12.15;60.74;99618.50;7061560;28;20230;-81
2022/03/16 07:10:50;;;;;;;43.17;28.73;;;;;;;12.37;59.53;99622.00;7060961;28;20473;-81
2022/03/16 07:17:51;;;;;;;41.97;28.67;;;;;;;12.28;58.44;99615.91;7059760;28;20295;-81
2022/03/16 07:21:12;;;;;;;41.90;29.30;;;;;;;12.51;59.28;99602.97;7059375;28;20221;-81
2022/03/16 07:24:34;;;;;;;37.57;26.30;;;;;;;12.68;58.43;99615.16;7059057;28;20344;-81
2022/03/16 07:27:57;;;;;;;38.57;27.83;;;;;;;12.45;58.77;99608.38;7058970;28;20237;-81
2022/03/16 07:31:18;;;;;;;41.93;27.40;;;;;;;12.37;58.32;99624.72;7059993;28;20295;-81
2022/03/16 07:34:40;;;;;;;38.60;26.33;;;;;;;12.02;60.07;99641.88;7058489;28;20233;-80
2022/03/16 07:38:02;;;;;;;38.03;26.80;;;;;;;11.77;61.38;99646.00;7057588;28;20255;-81
2022/03/16 07:41:24;;;;;;;44.70;28.13;;;;;;;12.02;60.49;99648.13;7056913;28;20226;-81
2022/03/16 07:44:49;;;;;;;36.37;26.17;;;;;;;11.65;60.91;99639.44;7055874;28;20323;-81
2022/03/16 07:48:10;;;;;;;38.80;27.50;;;;;;;11.83;59.96;99648.78;7056945;28;20725;-80
2022/03/16 07:51:32;;;;;;;37.60;25.87;;;;;;;12.21;59.78;99657.47;7057698;28;20241;-80
2022/03/16 07:54:54;;;;;;;33.30;23.43;;;;;;;12.56;58.28;99649.22;7058257;28;20202;-80
2022/03/16 07:58:15;;;;;;;34.80;24.30;;;;;;;12.38;58.29;99631.78;7057569;28;20224;-80
2022/03/16 08:01:39;;;;;;;31.50;22.80;;;;;;;12.37;58.80;99649.06;7056825;28;20224;-80
2022/03/16 08:05:01;;;;;;;37.10;24.67;;;;;;;11.84;59.55;99655.88;7058629;28;20589;-80
2022/03/16 08:08:22;;;;;;;34.83;25.37;;;;;;;11.51;60.63;99626.81;7058332;28;20274;-80
2022/03/16 08:11:44;;;;;;;31.20;23.47;;;;;;;12.33;58.67;99628.88;7058781;28;20196;-80
2022/03/16 08:15:06;;;;;;;31.00;22.87;;;;;;;12.13;59.35;99641.38;7058858;28;20208;-81
2022/03/16 08:18:29;;;;;;;30.70;21.87;;;;;;;11.66;60.88;99644.66;7058570;28;20260;-80
2022/03/16 08:21:51;;;;;;;31.43;22.40;;;;;;;12.32;59.39;99656.91;7058543;28;20689;-80
2022/03/16 08:25:13;;;;;;;31.63;23.63;;;;;;;12.42;58.63;99660.97;7058089;28;20211;-80
2022/03/16 08:28:34;;;;;;;31.27;22.87;;;;;;;12.13;59.16;99628.69;7058402;28;20715;-80
2022/03/16 08:31:57;;;;;;;29.33;22.57;;;;;;;11.80;61.01;99648.34;7058470;28;20209;-80
2022/03/16 08:35:23;;;;;;;30.17;22.90;;;;;;;12.23;59.79;99650.81;7058119;28;20216;-80
2022/03/16 08:38:44;;;;;;;30.13;23.57;;;;;;;12.19;60.17;99646.00;7058437;28;20220;-80
2022/03/16 08:42:06;;;;;;;28.60;21.63;;;;;;;12.38;59.60;99650.72;7058557;28;20270;-80
2022/03/16 08:45:28;;;;;;;28.23;22.37;;;;;;;12.29;59.87;99641.09;7058666;28;20203;-80
2022/03/16 08:48:50;;;;;;;28.93;20.93;;;;;;;12.07;59.86;99658.38;7058278;28;20216;-80
2022/03/16 08:52:13;;;;;;;29.63;21.97;;;;;;;11.63;61.45;99653.13;7058492;28;20666;-80
2022/03/16 08:55:34;;;;;;;28.67;21.67;;;;;;;12.06;60.58;99651.28;7058536;28;20732;-81
2022/03/16 08:58:56;;;;;;;26.20;20.80;;;;;;;12.52;59.06;99645.22;7056987;28;20267;-80
2022/03/16 09:02:18;;;;;;;27.20;21.13;;;;;;;12.41;60.09;99645.78;7057629;28;20224;-80
2022/03/16 09:05:39;;;;;;;30.00;22.73;;;;;;;12.40;60.26;99648.69;7057796;28;20251;-80
2022/03/16 09:09:03;;;;;;;28.47;22.90;;;;;;;12.80;59.07;99647.94;7078509;27;20231;-80
2022/03/16 09:12:24;;;;;;;31.20;23.37;;;;;;;13.03;58.84;99646.63;7084470;27;20661;-80
2022/03/16 09:15:46;;;;;;;30.83;22.27;;;;;;;13.19;57.58;99643.59;7083949;27;20208;-81
2022/03/16 09:19:07;;;;;;;28.60;21.57;;;;;;;12.98;58.46;99642.88;7084042;27;20227;-80
2022/03/16 09:22:29;;;;;;;29.73;22.90;;;;;;;12.93;59.02;99643.41;7083667;27;20256;-81
2022/03/16 09:25:52;;;;;;;29.10;22.10;;;;;;;13.16;58.29;99635.03;7066471;27;20685;-81
2022/03/16 09:29:16;;;;;;;30.53;22.63;;;;;;;13.09;58.35;99637.69;7053796;28;20209;-79
2022/03/16 09:32:39;;;;;;;28.30;20.57;;;;;;;13.27;58.62;99629.06;7053632;28;20676;-79
2022/03/16 09:36:03;;;;;;;30.67;21.70;;;;;;;13.04;59.06;99629.34;7052829;28;20209;-79
2022/03/16 09:39:25;;;;;;;29.67;22.23;;;;;;;13.47;57.75;99633.50;7054137;28;20659;-79
2022/03/16 09:42:48;;;;;;;29.67;23.63;;;;;;;13.68;57.79;99617.06;7054079;28;20225;-79
2022/03/16 09:46:11;;;;;;;35.00;25.07;;;;;;;13.24;57.43;99630.28;7053757;28;20229;-79
2022/03/16 09:49:33;;;;;;;30.67;22.83;;;;;;;13.01;59.09;99634.31;7053801;28;20598;-79
2022/03/16 09:52:55;;;;;;;31.70;22.83;;;;;;;12.52;60.85;99641.69;7080817;28;20742;-79
2022/03/16 09:56:18;;;;;;;29.00;21.37;;;;;;;13.32;58.38;99632.81;7082718;28;20230;-79
2022/03/16 09:59:42;;;;;;;27.63;21.77;;;;;;;13.62;57.91;99639.56;7085048;28;20268;-80
2022/03/16 10:03:04;;;;;;;28.70;20.90;;;;;;;12.69;59.99;99630.34;7059844;28;20222;-80
2022/03/16 10:06:26;;;;;;;27.53;21.20;;;;;;;13.70;57.33;99633.97;7033144;28;20255;-80
2022/03/16 10:13:44;;;;;;;29.67;23.77;;;;;;;13.25;56.79;99620.28;6939993;28;20199;-79
2022/03/16 10:20:49;;;;;;;26.77;21.17;;;;;;;13.57;57.16;99619.56;7054990;28;20612;-79
2022/03/16 10:24:12;;;;;;;26.43;20.73;;;;;;;13.32;56.80;99602.16;7054957;28;20252;-80
2022/03/16 10:27:37;;;;;;;23.83;19.80;;;;;;;14.09;55.63;99604.19;7054092;28;20253;-80
2022/03/16 10:31:00;;;;;;;26.57;19.63;;;;;;;14.36;54.44;99610.50;7054755;28;20263;-80
2022/03/16 10:34:24;;;;;;;27.80;21.00;;;;;;;14.15;54.61;99602.56;7053676;28;20240;-80
2022/03/16 10:37:47;;;;;;;26.67;21.57;;;;;;;13.83;56.03;99557.25;7053807;28;20617;-79
2022/03/16 10:41:13;;;;;;;28.47;21.47;;;;;;;13.10;57.85;99584.41;7053961;28;20732;-79
2022/03/16 10:48:28;;;;;;;24.67;18.93;;;;;;;14.89;53.55;99587.63;6990951;28;20299;-77
2022/03/16 10:52:05;;;;;;;22.13;17.70;;;;;;;15.42;51.07;99556.50;6987164;28;20247;-78
2022/03/16 10:55:26;;;;;;;20.23;17.40;;;;;;;15.56;50.86;99588.00;7065873;28;20547;-77
2022/03/16 10:58:50;;;;;;;20.67;17.33;;;;;;;15.69;50.25;99583.31;7078780;27;20227;-78
2022/03/16 11:02:13;;;;;;;20.20;16.90;;;;;;;15.63;50.36;99564.34;7078973;27;20220;-79
2022/03/16 11:05:37;;;;;;;19.80;17.67;;;;;;;15.30;50.42;99577.25;7058181;28;20333;-79
2022/03/16 11:09:00;;;;;;;20.50;16.77;;;;;;;15.19;50.83;99535.28;7055994;28;20220;-78
2022/03/16 11:16:02;;;;;;;20.20;18.00;;;;;;;15.05;51.31;99557.31;7056107;28;20184;-77
2022/03/16 11:19:24;;;;;;;21.30;17.33;;;;;;;16.46;50.32;99561.19;7058006;28;20211;-79
2022/03/16 11:26:29;;;;;;;18.93;16.50;;;;;;;16.42;46.99;99532.72;7056836;28;20226;-77
2022/03/16 11:30:01;;;;;;;17.23;15.47;;;;;;;16.26;49.41;99541.44;7057709;28;20577;-77
2022/03/16 11:33:23;;;;;;;16.17;14.47;;;;;;;16.71;48.18;99524.69;7058538;28;20216;-81
2022/03/16 11:36:45;;;;;;;18.70;16.63;;;;;;;16.36;48.66;99541.75;7055165;28;20231;-78
2022/03/16 11:40:13;;;;;;;17.93;16.03;;;;;;;16.63;47.72;99544.03;7055020;28;20337;-78
2022/03/16 11:43:36;;;;;;;19.37;15.53;;;;;;;17.10;46.08;99554.16;7056300;28;20274;-78
2022/03/16 11:47:37;;;;;;;17.77;14.83;;;;;;;16.33;48.14;99544.94;7052812;28;20227;-79
2022/03/16 11:51:21;;;;;;;18.20;16.27;;;;;;;15.24;51.49;99550.94;7048109;27;20228;-78
2022/03/16 11:54:45;;;;;;;22.20;15.83;;;;;;;15.19;52.67;99537.16;7056433;27;20204;-79
2022/03/16 11:58:16;;;;;;;18.67;16.37;;;;;;;14.74;52.72;99517.31;7065007;27;20309;-78
2022/03/16 12:01:42;;;;;;;20.50;14.17;;;;;;;15.62;50.83;99489.28;7083307;27;20207;-78
2022/03/16 12:05:04;;;;;;;22.83;16.60;;;;;;;15.68;50.48;99532.72;7057311;27;20667;-78
2022/03/16 12:08:32;;;;;;;17.57;15.70;;;;;;;15.20;52.87;99536.09;7025421;28;20235;-78
2022/03/16 12:15:53;;;;;;;19.47;17.40;;;;;;;16.11;50.89;99513.75;7025269;28;20185;-78
2022/03/16 12:19:29;;;;;;;20.77;14.70;;;;;;;16.40;49.86;99513.09;7025888;28;20247;-79
2022/03/16 12:22:52;;;;;;;17.03;15.20;;;;;;;16.35;50.31;99512.88;7026150;28;20358;-78
2022/03/16 12:26:14;;;;;;;18.10;16.20;;;;;;;15.57;51.01;99499.97;7025442;28;20719;-78
2022/03/16 12:29:36;;;;;;;19.97;15.83;;;;;;;16.19;50.20;99491.69;7025792;28;20343;-79
2022/03/16 12:32:57;;;;;;;18.07;14.80;;;;;;;15.03;51.75;99481.47;7026103;28;20754;-79
2022/03/16 12:36:22;;;;;;;21.00;15.27;;;;;;;15.24;52.72;99486.56;7025198;28;20307;-79
2022/03/16 12:39:47;;;;;;;17.40;14.53;;;;;;;16.15;50.74;99490.50;7025457;28;20234;-79
2022/03/16 12:43:08;;;;;;;16.90;14.57;;;;;;;16.50;49.34;99497.03;7025087;28;20340;-78
2022/03/16 12:46:34;;;;;;;18.40;14.47;;;;;;;16.61;48.43;99469.91;7024923;28;20233;-79
2022/03/16 12:49:56;;;;;;;19.57;15.43;;;;;;;16.64;48.73;99483.06;7025444;28;20193;-79
2022/03/16 12:53:44;;;;;;;17.83;14.77;;;;;;;16.55;49.10;99484.44;7027511;28;20350;-78
2022/03/16 12:57:08;;;;;;;18.17;15.43;;;;;;;16.62;49.00;99468.84;7025027;28;20238;-79
2022/03/16 13:00:31;;;;;;;20.17;15.67;;;;;;;16.70;48.23;99484.06;7024652;28;20205;-78
2022/03/16 13:04:00;;;;;;;15.50;13.70;;;;;;;17.04;47.90;99472.53;7024846;28;20270;-78
2022/03/16 13:07:22;;;;;;;16.87;15.00;;;;;;;17.10;47.40;99436.16;7024161;28;20232;-79
2022/03/16 13:14:24;;;;;;;20.43;15.67;;;;;;;17.42;46.81;99427.53;7024708;28;20181;-79
2022/03/16 13:17:46;;;;;;;17.73;15.93;;;;;;;17.04;47.57;99435.19;7024412;28;20260;-79
2022/03/16 13:21:23;;;;;;;18.33;16.27;;;;;;;16.85;47.97;99430.00;7024770;28;20265;-78
2022/03/16 13:24:45;;;;;;;21.53;16.87;;;;;;;16.74;48.34;99419.91;7024633;28;20208;-78
2022/03/16 13:28:08;;;;;;;18.17;16.20;;;;;;;16.88;48.20;99467.69;7023725;28;20225;-78
2022/03/16 13:31:31;;;;;;;18.37;15.57;;;;;;;17.58;47.06;99464.19;7024279;28;20216;-79
2022/03/16 13:34:53;;;;;;;17.77;15.90;;;;;;;17.40;47.47;99476.00;7026508;28;20209;-79
2022/03/16 13:38:15;;;;;;;17.20;15.43;;;;;;;16.59;47.45;99422.19;7025611;28;20252;-78
2022/03/16 13:42:04;;;;;;;18.03;16.13;;;;;;;16.73;48.35;99478.13;7024448;28;20772;-79
2022/03/16 13:45:23;;;;;;;18.77;16.70;;;;;;;17.51;46.44;99458.03;7023552;28;20209;-79
2022/03/16 13:48:45;;;;;;;19.10;16.40;;;;;;;17.38;46.67;99455.47;7023186;28;20701;-78
2022/03/16 13:52:08;;;;;;;19.10;16.10;;;;;;;16.91;48.01;99442.69;7056115;28;20687;-79
2022/03/16 13:55:34;;;;;;;17.23;15.27;;;;;;;17.42;46.44;99451.22;7080697;28;20211;-78
2022/03/16 13:58:56;;;;;;;16.90;14.73;;;;;;;17.53;46.43;99431.34;7079689;28;20216;-79
2022/03/16 14:02:21;;;;;;;16.80;14.83;;;;;;;17.32;46.26;99419.06;7079997;28;20844;-78
2022/03/16 14:05:43;;;;;;;19.27;15.67;;;;;;;17.50;46.08;99419.00;7079650;28;20187;-78
2022/03/16 14:09:11;;;;;;;15.57;13.97;;;;;;;17.61;45.56;99404.56;7079287;28;20260;-77
2022/03/16 14:12:35;;;;;;;16.10;14.40;;;;;;;17.40;45.85;99383.28;7054413;28;20192;-79
2022/03/16 14:16:12;;;;;;;15.73;13.50;;;;;;;17.53;46.03;99410.38;7053725;28;20197;-81
2022/03/16 14:19:38;;;;;;;16.77;14.90;;;;;;;17.41;45.67;99376.81;7051861;28;20201;-80
2022/03/16 14:23:01;;;;;;;17.37;13.80;;;;;;;17.54;45.72;99405.72;7053860;28;20299;-81
2022/03/16 14:26:22;;;;;;;16.57;14.30;;;;;;;17.84;45.51;99396.41;7067461;28;20573;-81
2022/03/16 14:29:45;;;;;;;16.63;14.13;;;;;;;16.88;46.20;99362.28;7083061;28;20280;-81
2022/03/16 14:33:09;;;;;;;16.47;14.70;;;;;;;17.14;46.97;99385.56;7068722;28;20208;-80
2022/03/16 14:36:33;;;;;;;14.73;13.23;;;;;;;17.12;46.64;99363.19;7061005;28;20217;-80
2022/03/16 14:39:54;;;;;;;15.33;13.73;;;;;;;17.00;46.98;99374.06;7056722;28;20241;-80
2022/03/16 14:43:16;;;;;;;15.37;13.77;;;;;;;17.21;46.85;99370.78;7040023;28;20645;-81
2022/03/16 14:46:37;;;;;;;17.70;14.87;;;;;;;17.39;46.34;99373.47;7055885;28;20311;-78
2022/03/16 14:50:00;;;;;;;18.00;13.60;;;;;;;17.52;45.46;99377.88;7084678;27;20686;-80
2022/03/16 14:53:23;;;;;;;15.30;13.70;;;;;;;17.41;45.72;99367.78;7085640;27;20208;-79
2022/03/16 14:56:45;;;;;;;14.93;13.30;;;;;;;17.62;44.80;99381.66;7053224;27;20367;-79
2022/03/16 15:00:08;;;;;;;16.43;12.57;;;;;;;17.07;45.60;99346.72;7085227;27;20683;-79
2022/03/16 15:03:31;;;;;;;14.40;12.90;;;;;;;17.56;45.03;99373.59;7084694;27;20248;-80
2022/03/16 15:06:53;;;;;;;14.57;12.80;;;;;;;17.35;45.79;99371.41;7074340;27;20229;-79
2022/03/16 15:10:18;;;;;;;14.73;13.20;;;;;;;17.39;45.46;99369.94;7055743;28;20197;-79
2022/03/16 15:13:40;;;;;;;16.33;14.13;;;;;;;17.83;44.85;99375.66;7056073;28;20228;-79
2022/03/16 15:17:02;;;;;;;18.90;13.83;;;;;;;17.29;45.25;99342.38;7055569;28;20224;-79
2022/03/16 15:20:23;;;;;;;16.50;14.70;;;;;;;17.43;45.31;99355.59;7056526;28;20313;-80
2022/03/16 15:23:45;;;;;;;15.30;13.63;;;;;;;17.50;45.46;99344.53;7029309;28;20217;-78
2022/03/16 15:27:09;;;;;;;15.60;13.90;;;;;;;17.46;45.22;99349.63;7036118;28;20225;-79
2022/03/16 15:30:31;;;;;;;15.50;13.90;;;;;;;17.51;45.34;99355.22;7028723;28;20216;-78
2022/03/16 15:33:53;;;;;;;16.70;14.57;;;;;;;17.42;45.63;99366.72;7026999;28;20216;-78
2022/03/16 15:37:15;;;;;;;15.90;14.20;;;;;;;17.36;45.82;99371.19;7026952;28;20229;-78
2022/03/16 15:44:17;;;;;;;16.27;14.67;;;;;;;17.67;45.39;99359.97;7026689;28;20213;-78
2022/03/16 15:47:39;;;;;;;15.73;14.23;;;;;;;17.77;45.13;99373.03;7025909;28;20263;-79
2022/03/16 15:51:00;;;;;;;17.80;16.10;;;;;;;17.84;44.96;99354.63;7033431;28;20216;-79
2022/03/16 15:54:23;;;;;;;19.50;17.50;;;;;;;17.66;44.92;99366.50;7064752;27;20204;-78
2022/03/16 15:57:45;;;;;;;20.00;17.47;;;;;;;17.48;46.02;99379.41;7083164;27;20727;-77
2022/03/16 16:01:10;;;;;;;19.30;17.30;;;;;;;17.68;45.36;99369.00;7083328;27;20210;-78
2022/03/16 16:04:34;;;;;;;19.83;17.73;;;;;;;17.70;45.21;99367.66;7083204;27;20204;-78
2022/03/16 16:07:56;;;;;;;20.03;17.93;;;;;;;17.44;45.62;99364.56;7082073;27;20220;-78